sensor_id;sensor_type;location;lat;lon;timestamp;pressure;altitude;pressure_sealevel;temperature;humidity
60427;BME280;46274;47.168;27.604;2023-02-15T00:01:43;101291.44;;;2.45;73.19
60427;BME280;46274;47.168;27.604;2023-02-15T00:07:45;101312.09;;;2.57;73.20
60427;BME280;46274;47.168;27.604;2023-02-15T00:13:48;101311.22;;;2.43;73.51
60427;BME280;46274;47.168;27.604;2023-02-15T00:19:50;101319.91;;;2.32;73.93
60427;BME280;46274;47.168;27.604;2023-02-15T00:26:11;101310.94;;;2.33;73.59
60427;BME280;46274;47.168;27.604;2023-02-15T00:32:15;101220.84;;;1.60;74.27
60427;BME280;46274;47.168;27.604;2023-02-15T00:38:18;101317.28;;;2.16;74.54
60427;BME280;46274;47.168;27.604;2023-02-15T00:44:20;101312.97;;;2.13;74.48
60427;BME280;46274;47.168;27.604;2023-02-15T00:50:23;101313.19;;;2.10;74.85
60427;BME280;46274;47.168;27.604;2023-02-15T00:56:26;101310.81;;;2.20;74.69
60427;BME280;46274;47.168;27.604;2023-02-15T01:02:37;101282.91;;;2.10;74.73
60427;BME280;46274;47.168;27.604;2023-02-15T01:08:39;101152.00;;;1.35;74.92
60427;BME280;46274;47.168;27.604;2023-02-15T01:14:55;101259.06;;;1.91;74.82
60427;BME280;46274;47.168;27.604;2023-02-15T01:20:59;101294.19;;;2.15;75.10
60427;BME280;46274;47.168;27.604;2023-02-15T01:27:01;101304.38;;;2.08;75.09
60427;BME280;46274;47.168;27.604;2023-02-15T01:33:04;101259.59;;;1.67;75.68
60427;BME280;46274;47.168;27.604;2023-02-15T01:39:06;101304.22;;;1.81;75.89
60427;BME280;46274;47.168;27.604;2023-02-15T01:51:27;101279.94;;;1.54;76.09
60427;BME280;46274;47.168;27.604;2023-02-15T01:57:31;101147.59;;;0.72;75.82
60427;BME280;46274;47.168;27.604;2023-02-15T02:10:15;101283.59;;;1.53;76.32
60427;BME280;46274;47.168;27.604;2023-02-15T02:23:12;101282.53;;;1.56;76.77
60427;BME280;46274;47.168;27.604;2023-02-15T02:48:15;101140.19;;;0.77;76.28
60427;BME280;46274;47.168;27.604;2023-02-15T02:54:18;101153.72;;;0.74;76.22
60427;BME280;46274;47.168;27.604;2023-02-15T03:00:23;101095.91;;;0.43;76.22
60427;BME280;46274;47.168;27.604;2023-02-15T03:12:41;101262.59;;;1.15;77.02
60427;BME280;46274;47.168;27.604;2023-02-15T03:18:48;101322.44;;;1.43;77.17
60427;BME280;46274;47.168;27.604;2023-02-15T03:25:11;101320.03;;;1.38;77.21
60427;BME280;46274;47.168;27.604;2023-02-15T03:31:18;101319.34;;;1.35;77.25
60427;BME280;46274;47.168;27.604;2023-02-15T03:43:49;101300.13;;;1.12;77.29
60427;BME280;46274;47.168;27.604;2023-02-15T03:50:00;101302.22;;;1.07;77.33
60427;BME280;46274;47.168;27.604;2023-02-15T03:56:06;101293.78;;;0.99;77.53
60427;BME280;46274;47.168;27.604;2023-02-15T04:02:31;101220.56;;;0.55;77.47
60427;BME280;46274;47.168;27.604;2023-02-15T04:08:37;101266.03;;;0.85;77.61
60427;BME280;46274;47.168;27.604;2023-02-15T04:14:58;101319.25;;;1.20;77.46
60427;BME280;46274;47.168;27.604;2023-02-15T04:21:20;101289.47;;;0.96;77.39
60427;BME280;46274;47.168;27.604;2023-02-15T04:27:48;101281.88;;;0.89;77.29
60427;BME280;46274;47.168;27.604;2023-02-15T04:33:51;101275.31;;;0.78;77.34
60427;BME280;46274;47.168;27.604;2023-02-15T04:39:53;101282.38;;;0.79;77.43
60427;BME280;46274;47.168;27.604;2023-02-15T04:45:56;101243.59;;;0.40;77.77
60427;BME280;46274;47.168;27.604;2023-02-15T04:51:57;101323.91;;;1.01;77.53
60427;BME280;46274;47.168;27.604;2023-02-15T04:58:00;101312.31;;;0.84;77.86
60427;BME280;46274;47.168;27.604;2023-02-15T05:04:03;101291.03;;;0.67;77.35
60427;BME280;46274;47.168;27.604;2023-02-15T05:10:06;101335.41;;;0.85;77.45
60427;BME280;46274;47.168;27.604;2023-02-15T05:16:09;101364.88;;;1.00;77.59
60427;BME280;46274;47.168;27.604;2023-02-15T05:22:11;101371.47;;;0.93;77.68
60427;BME280;46274;47.168;27.604;2023-02-15T05:28:14;101358.81;;;0.80;77.63
60427;BME280;46274;47.168;27.604;2023-02-15T05:34:22;101370.34;;;0.81;77.46
60427;BME280;46274;47.168;27.604;2023-02-15T05:40:25;101359.28;;;0.71;77.91
60427;BME280;46274;47.168;27.604;2023-02-15T05:46:35;101191.03;;;-0.41;77.69
60427;BME280;46274;47.168;27.604;2023-02-15T05:52:38;101398.16;;;0.93;77.60
60427;BME280;46274;47.168;27.604;2023-02-15T05:58:41;101413.69;;;1.02;77.53
60427;BME280;46274;47.168;27.604;2023-02-15T06:04:43;101418.69;;;1.08;77.36
60427;BME280;46274;47.168;27.604;2023-02-15T06:10:46;101417.44;;;1.31;76.84
60427;BME280;46274;47.168;27.604;2023-02-15T06:16:48;101330.09;;;1.17;75.79
60427;BME280;46274;47.168;27.604;2023-02-15T06:22:51;101399.19;;;1.87;75.45
60427;BME280;46274;47.168;27.604;2023-02-15T06:28:53;101402.28;;;1.95;74.76
60427;BME280;46274;47.168;27.604;2023-02-15T06:34:58;101383.50;;;1.96;74.39
60427;BME280;46274;47.168;27.604;2023-02-15T06:41:00;101405.66;;;2.29;73.65
60427;BME280;46274;47.168;27.604;2023-02-15T06:47:03;101331.09;;;1.94;73.34
60427;BME280;46274;47.168;27.604;2023-02-15T06:53:05;101373.56;;;2.29;73.28
60427;BME280;46274;47.168;27.604;2023-02-15T06:59:07;101384.34;;;2.57;72.65
60427;BME280;46274;47.168;27.604;2023-02-15T07:05:09;101405.50;;;2.76;71.84
60427;BME280;46274;47.168;27.604;2023-02-15T07:11:12;101413.75;;;2.88;72.26
60427;BME280;46274;47.168;27.604;2023-02-15T07:17:32;101354.75;;;2.75;72.46
60427;BME280;46274;47.168;27.604;2023-02-15T07:23:38;101413.84;;;3.29;70.18
60427;BME280;46274;47.168;27.604;2023-02-15T07:29:46;101339.25;;;2.94;69.25
60427;BME280;46274;47.168;27.604;2023-02-15T07:36:13;101414.28;;;3.64;68.72
60427;BME280;46274;47.168;27.604;2023-02-15T07:42:18;101409.34;;;3.85;68.25
60427;BME280;46274;47.168;27.604;2023-02-15T07:48:22;101401.88;;;4.30;68.40
60427;BME280;46274;47.168;27.604;2023-02-15T07:54:38;101352.28;;;3.83;68.35
60427;BME280;46274;47.168;27.604;2023-02-15T08:00:44;101396.25;;;4.21;66.94
60427;BME280;46274;47.168;27.604;2023-02-15T08:07:11;101368.75;;;4.04;66.01
60427;BME280;46274;47.168;27.604;2023-02-15T08:13:20;101323.97;;;4.19;66.81
60427;BME280;46274;47.168;27.604;2023-02-15T08:19:27;101362.00;;;4.64;65.88
60427;BME280;46274;47.168;27.604;2023-02-15T08:25:40;101336.22;;;4.49;64.01
60427;BME280;46274;47.168;27.604;2023-02-15T08:38:19;101205.28;;;3.90;63.02
60427;BME280;46274;47.168;27.604;2023-02-15T08:44:28;101358.53;;;5.13;61.76
60427;BME280;46274;47.168;27.604;2023-02-15T08:50:41;101387.19;;;5.38;61.31
60427;BME280;46274;47.168;27.604;2023-02-15T08:56:45;101380.56;;;5.68;62.09
60427;BME280;46274;47.168;27.604;2023-02-15T09:02:48;101345.56;;;5.81;61.51
60427;BME280;46274;47.168;27.604;2023-02-15T09:09:00;101358.97;;;5.20;55.38
60427;BME280;46274;47.168;27.604;2023-02-15T09:15:05;101398.88;;;5.63;55.82
60427;BME280;46274;47.168;27.604;2023-02-15T09:21:18;101385.38;;;5.39;54.43
60427;BME280;46274;47.168;27.604;2023-02-15T09:27:32;101385.91;;;5.81;58.26
60427;BME280;46274;47.168;27.604;2023-02-15T09:33:36;101352.69;;;5.93;55.77
60427;BME280;46274;47.168;27.604;2023-02-15T09:39:46;101255.78;;;5.22;54.65
60427;BME280;46274;47.168;27.604;2023-02-15T09:46:23;101347.66;;;5.64;54.30
60427;BME280;46274;47.168;27.604;2023-02-15T10:13:08;101081.34;;;4.84;53.20
60427;BME280;46274;47.168;27.604;2023-02-15T10:26:20;101241.59;;;5.44;55.47
60427;BME280;46274;47.168;27.604;2023-02-15T10:45:42;101365.41;;;6.97;54.60
60427;BME280;46274;47.168;27.604;2023-02-15T10:58:11;101349.94;;;7.21;54.52
60427;BME280;46274;47.168;27.604;2023-02-15T11:11:10;101355.34;;;6.88;51.14
60427;BME280;46274;47.168;27.604;2023-02-15T11:17:25;101351.53;;;7.02;52.51
60427;BME280;46274;47.168;27.604;2023-02-15T11:30:33;101332.41;;;7.27;51.28
60427;BME280;46274;47.168;27.604;2023-02-15T11:36:49;101315.03;;;6.86;52.49
60427;BME280;46274;47.168;27.604;2023-02-15T11:43:17;101318.00;;;7.06;51.98
60427;BME280;46274;47.168;27.604;2023-02-15T11:49:30;101300.59;;;6.65;50.81
60427;BME280;46274;47.168;27.604;2023-02-15T11:55:35;101300.06;;;7.38;52.73
60427;BME280;46274;47.168;27.604;2023-02-15T12:01:46;101329.97;;;7.02;51.07
60427;BME280;46274;47.168;27.604;2023-02-15T12:08:23;101321.91;;;7.02;51.71
60427;BME280;46274;47.168;27.604;2023-02-15T12:14:46;101321.53;;;7.29;49.93
60427;BME280;46274;47.168;27.604;2023-02-15T12:20:49;101179.28;;;6.44;50.63
60427;BME280;46274;47.168;27.604;2023-02-15T12:27:19;101315.00;;;7.54;51.39
60427;BME280;46274;47.168;27.604;2023-02-15T12:39:55;101179.84;;;6.92;49.29
60427;BME280;46274;47.168;27.604;2023-02-15T12:46:24;101296.75;;;7.78;49.66
60427;BME280;46274;47.168;27.604;2023-02-15T12:52:40;101292.72;;;8.05;51.13
60427;BME280;46274;47.168;27.604;2023-02-15T12:59:12;101262.53;;;8.00;49.44
60427;BME280;46274;47.168;27.604;2023-02-15T13:05:37;101285.88;;;7.69;49.44
60427;BME280;46274;47.168;27.604;2023-02-15T13:11:42;101004.13;;;6.57;50.55
60427;BME280;46274;47.168;27.604;2023-02-15T13:17:53;101289.88;;;7.74;50.39
60427;BME280;46274;47.168;27.604;2023-02-15T13:24:00;101175.72;;;6.77;49.16
60427;BME280;46274;47.168;27.604;2023-02-15T13:30:23;101270.34;;;7.82;50.39
60427;BME280;46274;47.168;27.604;2023-02-15T14:01:39;101262.34;;;6.26;47.96
60427;BME280;46274;47.168;27.604;2023-02-15T14:26:59;101309.09;;;6.25;48.23
60427;BME280;46274;47.168;27.604;2023-02-15T14:33:14;101174.13;;;5.60;49.72
60427;BME280;46274;47.168;27.604;2023-02-15T14:46:16;101308.84;;;6.28;51.03
60427;BME280;46274;47.168;27.604;2023-02-15T14:52:22;101097.34;;;4.86;50.54
60427;BME280;46274;47.168;27.604;2023-02-15T14:58:23;101230.59;;;5.72;51.48
60427;BME280;46274;47.168;27.604;2023-02-15T15:04:35;101329.19;;;6.08;51.71
60427;BME280;46274;47.168;27.604;2023-02-15T15:10:46;101331.66;;;5.87;51.17
60427;BME280;46274;47.168;27.604;2023-02-15T15:16:50;101326.28;;;5.87;51.58
60427;BME280;46274;47.168;27.604;2023-02-15T15:23:41;101332.22;;;5.55;52.38
60427;BME280;46274;47.168;27.604;2023-02-15T15:29:44;101250.72;;;4.94;51.95
60427;BME280;46274;47.168;27.604;2023-02-15T15:36:20;101339.38;;;5.31;53.21
60427;BME280;46274;47.168;27.604;2023-02-15T15:49:05;101350.31;;;5.03;53.50
60427;BME280;46274;47.168;27.604;2023-02-15T15:55:15;101252.94;;;4.37;53.43
60427;BME280;46274;47.168;27.604;2023-02-15T16:01:26;101364.47;;;4.93;52.79
60427;BME280;46274;47.168;27.604;2023-02-15T16:07:31;101366.75;;;4.73;55.07
60427;BME280;46274;47.168;27.604;2023-02-15T16:13:34;101367.06;;;4.69;55.00
60427;BME280;46274;47.168;27.604;2023-02-15T16:19:39;101228.88;;;3.98;55.48
60427;BME280;46274;47.168;27.604;2023-02-15T16:32:18;101365.53;;;4.90;55.50
60427;BME280;46274;47.168;27.604;2023-02-15T16:44:55;101376.84;;;4.57;56.88
60427;BME280;46274;47.168;27.604;2023-02-15T16:51:00;101380.03;;;4.88;56.32
60427;BME280;46274;47.168;27.604;2023-02-15T16:57:16;101386.28;;;4.63;56.75
60427;BME280;46274;47.168;27.604;2023-02-15T17:03:22;101212.91;;;3.56;57.59
60427;BME280;46274;47.168;27.604;2023-02-15T17:09:26;101387.56;;;4.82;57.13
60427;BME280;46274;47.168;27.604;2023-02-15T17:16:05;101395.31;;;4.87;57.86
60427;BME280;46274;47.168;27.604;2023-02-15T17:22:17;101396.50;;;4.70;59.75
60427;BME280;46274;47.168;27.604;2023-02-15T17:28:26;101408.81;;;4.47;60.84
60427;BME280;46274;47.168;27.604;2023-02-15T17:40:47;101376.88;;;4.30;60.62
60427;BME280;46274;47.168;27.604;2023-02-15T17:46:52;101390.31;;;4.43;60.96
60427;BME280;46274;47.168;27.604;2023-02-15T17:53:02;101320.69;;;4.01;61.38
60427;BME280;46274;47.168;27.604;2023-02-15T17:59:18;101387.56;;;4.44;61.00
60427;BME280;46274;47.168;27.604;2023-02-15T18:05:22;101353.47;;;4.19;61.55
60427;BME280;46274;47.168;27.604;2023-02-15T18:11:43;101310.34;;;3.82;62.03
60427;BME280;46274;47.168;27.604;2023-02-15T18:17:50;101326.44;;;3.55;63.11
60427;BME280;46274;47.168;27.604;2023-02-15T18:23:55;101365.72;;;3.69;63.55
60427;BME280;46274;47.168;27.604;2023-02-15T18:29:58;101369.66;;;3.63;63.91
60427;BME280;46274;47.168;27.604;2023-02-15T18:36:06;101213.47;;;2.80;63.87
60427;BME280;46274;47.168;27.604;2023-02-15T18:48:24;101360.84;;;3.61;63.78
60427;BME280;46274;47.168;27.604;2023-02-15T18:54:29;101330.88;;;3.42;63.97
60427;BME280;46274;47.168;27.604;2023-02-15T19:00:33;101359.25;;;3.59;63.15
60427;BME280;46274;47.168;27.604;2023-02-15T19:06:40;101356.72;;;3.70;63.06
60427;BME280;46274;47.168;27.604;2023-02-15T19:12:50;101352.31;;;3.69;63.28
60427;BME280;46274;47.168;27.604;2023-02-15T19:18:54;101304.63;;;3.47;63.25
60427;BME280;46274;47.168;27.604;2023-02-15T19:24:58;101354.50;;;3.77;62.88
60427;BME280;46274;47.168;27.604;2023-02-15T19:31:10;101305.28;;;3.50;61.85
60427;BME280;46274;47.168;27.604;2023-02-15T19:37:26;101348.78;;;3.96;61.13
60427;BME280;46274;47.168;27.604;2023-02-15T19:43:32;101302.63;;;3.78;60.78
60427;BME280;46274;47.168;27.604;2023-02-15T19:49:35;101360.75;;;3.77;62.08
60427;BME280;46274;47.168;27.604;2023-02-15T19:55:46;101360.09;;;4.13;61.00
60427;BME280;46274;47.168;27.604;2023-02-15T20:01:49;101077.34;;;2.20;61.23
60427;BME280;46274;47.168;27.604;2023-02-15T20:07:56;101332.13;;;3.36;62.78
60427;BME280;46274;47.168;27.604;2023-02-15T20:14:15;101373.84;;;3.12;64.37
60427;BME280;46274;47.168;27.604;2023-02-15T20:26:49;101277.44;;;3.53;61.99
60427;BME280;46274;47.168;27.604;2023-02-15T20:33:15;101356.81;;;3.27;64.63
60427;BME280;46274;47.168;27.604;2023-02-15T20:39:18;101349.47;;;2.73;65.51
60427;BME280;46274;47.168;27.604;2023-02-15T20:45:31;101278.56;;;2.95;63.95
60427;BME280;46274;47.168;27.604;2023-02-15T20:52:00;101355.41;;;3.36;64.22
60427;BME280;46274;47.168;27.604;2023-02-15T21:04:31;101353.16;;;2.42;69.52
60427;BME280;46274;47.168;27.604;2023-02-15T21:10:45;101085.09;;;1.81;64.86
60427;BME280;46274;47.168;27.604;2023-02-15T21:17:04;101352.72;;;3.63;63.44
60427;BME280;46274;47.168;27.604;2023-02-15T21:23:22;101349.28;;;3.61;63.25
60427;BME280;46274;47.168;27.604;2023-02-15T21:29:28;101345.53;;;3.63;63.09
60427;BME280;46274;47.168;27.604;2023-02-15T21:35:31;101316.25;;;3.33;63.87
60427;BME280;46274;47.168;27.604;2023-02-15T21:41:50;101346.78;;;2.73;66.85
60427;BME280;46274;47.168;27.604;2023-02-15T21:48:11;101334.66;;;2.53;66.67
60427;BME280;46274;47.168;27.604;2023-02-15T21:54:27;101298.38;;;2.19;66.81
60427;BME280;46274;47.168;27.604;2023-02-15T22:00:30;101286.09;;;3.02;63.93
60427;BME280;46274;47.168;27.604;2023-02-15T22:06:42;101305.09;;;1.96;68.53
60427;BME280;46274;47.168;27.604;2023-02-15T22:12:54;101220.75;;;2.35;64.85
60427;BME280;46274;47.168;27.604;2023-02-15T22:19:04;101335.41;;;2.55;67.23
60427;BME280;46274;47.168;27.604;2023-02-15T22:25:20;101327.75;;;3.21;64.54
60427;BME280;46274;47.168;27.604;2023-02-15T22:31:25;101267.28;;;2.90;64.53
60427;BME280;46274;47.168;27.604;2023-02-15T22:37:30;101150.47;;;2.18;64.67
60427;BME280;46274;47.168;27.604;2023-02-15T22:43:41;101319.53;;;3.24;64.33
60427;BME280;46274;47.168;27.604;2023-02-15T22:49:52;101140.09;;;0.95;69.19
60427;BME280;46274;47.168;27.604;2023-02-15T22:56:11;101122.00;;;1.60;66.61
60427;BME280;46274;47.168;27.604;2023-02-15T23:02:18;101317.44;;;1.99;70.02
60427;BME280;46274;47.168;27.604;2023-02-15T23:08:20;101313.84;;;2.58;67.94
60427;BME280;46274;47.168;27.604;2023-02-15T23:14:32;101313.44;;;2.93;65.96
60427;BME280;46274;47.168;27.604;2023-02-15T23:20:36;101277.09;;;2.32;67.81
60427;BME280;46274;47.168;27.604;2023-02-15T23:26:48;101315.16;;;2.94;66.13
60427;BME280;46274;47.168;27.604;2023-02-15T23:32:56;101311.34;;;2.98;65.99
60427;BME280;46274;47.168;27.604;2023-02-15T23:45:39;101178.28;;;2.02;66.13
60427;BME280;46274;47.168;27.604;2023-02-15T23:52:01;101323.16;;;2.37;67.81
60427;BME280;46274;47.168;27.604;2023-02-15T23:58:16;101311.72;;;2.78;66.15
